Time;durP1;ratioP1;P1;durP2;ratioP2;P2;SDS_P1;SDS_P2;PMS_P1;PMS_P2;Temp;Humidity;BMP_temperature;BMP_pressure;BME280_temperature;BME280_humidity;BME280_pressure;Samples;Min_cycle;Max_cycle;Signal;HPM_P1;HPM_P2
2023/08/31 00:01:49;;;;;;;3.20;1.70;;;;;;;22.27;56.73;100345.84;10378078;28;97594;-79
2023/08/31 00:06:54;;;;;;;2.55;1.88;;;;;;;21.96;57.37;100346.75;10377309;28;98031;-79
2023/08/31 00:11:57;;;;;;;2.25;1.50;;;;;;;22.12;57.53;100340.97;10377807;28;96770;-80
2023/08/31 00:17:00;;;;;;;2.88;1.60;;;;;;;21.91;57.86;100335.56;10367132;28;96769;-79
2023/08/31 00:22:06;;;;;;;2.50;1.48;;;;;;;22.14;57.49;100328.28;10334987;28;96747;-80
2023/08/31 00:27:10;;;;;;;1.92;1.45;;;;;;;21.78;58.50;100336.75;10335880;28;97594;-79
2023/08/31 00:32:13;;;;;;;1.70;1.17;;;;;;;22.07;57.94;100325.25;10336394;28;96882;-79
2023/08/31 00:37:18;;;;;;;2.50;1.50;;;;;;;22.27;57.10;100331.59;10336034;28;96762;-80
2023/08/31 00:42:21;;;;;;;2.28;1.50;;;;;;;22.31;57.13;100333.88;10336352;28;96860;-79
2023/08/31 00:47:25;;;;;;;2.57;1.83;;;;;;;22.35;57.25;100339.84;10335204;28;96966;-79
2023/08/31 00:52:30;;;;;;;2.00;1.38;;;;;;;21.90;58.25;100347.25;10335230;28;96664;-80
2023/08/31 00:57:35;;;;;;;3.00;1.60;;;;;;;22.07;57.81;100329.78;10336460;28;96610;-79
2023/08/31 01:02:48;;;;;;;3.20;1.83;;;;;;;22.07;58.02;100333.28;10335084;28;97099;-80
2023/08/31 01:07:58;;;;;;;1.98;1.67;;;;;;;21.84;58.67;100333.53;10334974;28;97320;-80
2023/08/31 01:13:11;;;;;;;2.92;1.70;;;;;;;21.12;60.28;100333.28;10334361;28;96968;-80
2023/08/31 01:18:18;;;;;;;2.70;1.48;;;;;;;21.17;60.31;100330.28;10335879;28;97886;-79
2023/08/31 01:23:28;;;;;;;2.45;1.52;;;;;;;21.36;59.44;100330.47;10334642;28;96963;-80
2023/08/31 01:28:33;;;;;;;2.63;1.50;;;;;;;21.21;59.93;100334.38;10334862;28;96830;-79
2023/08/31 01:33:36;;;;;;;2.85;1.60;;;;;;;21.12;60.14;100332.44;10340262;28;97289;-80
2023/08/31 01:38:45;;;;;;;1.98;1.38;;;;;;;21.12;60.26;100335.13;10341959;28;98139;-80
2023/08/31 01:43:52;;;;;;;3.05;1.58;;;;;;;21.02;60.35;100329.66;10341150;28;96784;-80
2023/08/31 01:48:56;;;;;;;2.75;1.63;;;;;;;21.32;59.80;100315.63;10341458;28;96648;-80
2023/08/31 01:53:59;;;;;;;3.13;1.42;;;;;;;21.42;59.89;100314.72;10340875;28;96956;-80
2023/08/31 01:59:03;;;;;;;3.63;1.80;;;;;;;21.41;59.85;100315.69;10340438;28;96757;-80
2023/08/31 02:04:07;;;;;;;2.40;1.73;;;;;;;21.35;59.85;100318.91;10340287;28;96919;-80
2023/08/31 02:09:10;;;;;;;2.63;1.98;;;;;;;21.23;60.40;100335.97;10340682;28;97842;-80
2023/08/31 02:14:15;;;;;;;2.60;1.77;;;;;;;21.16;60.81;100328.56;10340354;28;96565;-80
2023/08/31 02:19:18;;;;;;;3.25;1.80;;;;;;;21.01;61.21;100329.78;10341845;28;96853;-80
2023/08/31 02:24:21;;;;;;;4.65;1.83;;;;;;;20.96;61.25;100326.63;10381330;28;96716;-80
2023/08/31 02:29:26;;;;;;;3.03;1.95;;;;;;;21.22;60.76;100325.41;10381034;28;96639;-79
2023/08/31 02:34:29;;;;;;;2.13;1.58;;;;;;;21.30;60.31;100321.09;10380894;28;96747;-79
2023/08/31 02:39:32;;;;;;;2.95;1.73;;;;;;;20.97;61.89;100323.84;10380382;28;96756;-80
2023/08/31 02:44:38;;;;;;;2.10;1.60;;;;;;;20.76;62.59;100322.03;10379563;28;97043;-80
2023/08/31 02:49:41;;;;;;;2.28;1.33;;;;;;;20.62;62.19;100312.44;10379679;28;97238;-80
2023/08/31 02:54:45;;;;;;;2.00;1.40;;;;;;;20.50;62.95;100316.09;10378437;28;96573;-79
2023/08/31 02:59:52;;;;;;;2.80;1.80;;;;;;;20.28;64.01;100316.06;10380080;28;97485;-79
2023/08/31 03:04:56;;;;;;;3.58;1.50;;;;;;;20.38;63.28;100307.22;10380149;28;97621;-79
2023/08/31 03:09:59;;;;;;;;;;;;;;;20.16;64.40;100312.53;10380415;28;97928;-79
2023/08/31 03:15:07;;;;;;;2.22;1.63;;;;;;;20.06;64.48;100314.22;10379013;28;96793;-79
2023/08/31 03:20:11;;;;;;;3.10;1.42;;;;;;;20.08;64.10;100322.94;10343239;28;97523;-79
2023/08/31 03:25:14;;;;;;;2.42;1.52;;;;;;;20.11;63.65;100328.06;10338190;28;96874;-80
2023/08/31 03:30:19;;;;;;;2.42;1.60;;;;;;;20.22;63.11;100329.91;10338990;28;96936;-79
2023/08/31 03:35:26;;;;;;;4.28;1.30;;;;;;;20.32;62.73;100330.94;10337766;28;97273;-79
2023/08/31 03:40:29;;;;;;;2.95;1.50;;;;;;;20.38;62.66;100334.94;10337708;28;97326;-80
2023/08/31 03:45:34;;;;;;;4.43;1.58;;;;;;;20.27;62.70;100325.88;10336480;28;96722;-79
2023/08/31 03:50:38;;;;;;;3.38;1.58;;;;;;;20.25;62.68;100327.00;10336923;28;96743;-80
2023/08/31 03:55:41;;;;;;;2.22;1.40;;;;;;;20.27;62.51;100331.22;10336378;28;96817;-79
2023/08/31 04:00:50;;;;;;;2.70;1.52;;;;;;;20.21;63.01;100325.53;10337022;28;96729;-80
2023/08/31 04:05:57;;;;;;;2.85;1.60;;;;;;;20.19;62.82;100320.31;10337391;28;96998;-80
2023/08/31 04:11:01;;;;;;;2.58;1.48;;;;;;;20.14;62.90;100325.16;10336646;28;96733;-80
2023/08/31 04:16:06;;;;;;;4.53;1.70;;;;;;;20.11;62.99;100322.72;10335435;28;96950;-80
2023/08/31 04:21:10;;;;;;;4.30;1.70;;;;;;;20.11;62.89;100316.53;10338985;28;97445;-79
2023/08/31 04:26:14;;;;;;;3.40;1.58;;;;;;;19.98;63.31;100316.63;10335897;28;97285;-79
2023/08/31 04:31:19;;;;;;;2.53;1.45;;;;;;;19.87;64.72;100329.09;10336303;28;96898;-79
2023/08/31 04:36:23;;;;;;;3.00;1.42;;;;;;;19.81;64.63;100332.22;10334970;28;96732;-80
2023/08/31 04:41:26;;;;;;;1.88;1.50;;;;;;;19.74;64.79;100329.19;10335289;28;96660;-79
2023/08/31 04:46:31;;;;;;;2.47;1.40;;;;;;;19.64;65.02;100338.00;10335054;28;97082;-79
2023/08/31 04:51:37;;;;;;;2.75;1.88;;;;;;;19.80;64.68;100333.22;10335445;28;96721;-79
2023/08/31 04:56:41;;;;;;;3.38;1.77;;;;;;;19.75;64.88;100340.72;10335047;28;96822;-80
2023/08/31 05:01:46;;;;;;;2.63;1.60;;;;;;;19.61;65.45;100349.78;10335230;28;96747;-79
2023/08/31 05:06:49;;;;;;;3.58;1.65;;;;;;;19.47;66.77;100344.63;10333230;28;96720;-80
2023/08/31 05:11:52;;;;;;;3.10;1.45;;;;;;;19.44;66.14;100360.84;10338198;28;96802;-80
2023/08/31 05:16:57;;;;;;;4.28;1.58;;;;;;;19.27;67.53;100363.88;10354473;22;100107;-80
2023/08/31 05:22:01;;;;;;;4.20;1.75;;;;;;;19.17;68.19;100363.72;10420297;27;97256;-79
2023/08/31 05:27:04;;;;;;;3.60;1.40;;;;;;;18.96;69.48;100373.25;10410172;27;96780;-79
2023/08/31 05:32:09;;;;;;;4.68;1.65;;;;;;;19.11;68.16;100388.16;10377960;28;96544;-79
2023/08/31 05:37:12;;;;;;;;;;;;;;;19.12;68.90;100397.00;10378200;28;96689;-80
2023/08/31 05:42:15;;;;;;;2.53;1.52;;;;;;;19.17;67.37;100389.53;10377768;28;97463;-80
2023/08/31 05:47:20;;;;;;;2.90;1.98;;;;;;;19.21;67.21;100399.03;10377949;28;97042;-80
2023/08/31 05:52:23;;;;;;;;;;;;;;;19.11;68.64;100406.81;10377792;28;97302;-79
2023/08/31 05:57:27;;;;;;;2.53;1.55;;;;;;;19.06;67.73;100406.31;10377289;28;96689;-79
2023/08/31 06:02:32;;;;;;;1.83;1.20;;;;;;;19.06;67.80;100400.97;10378303;28;96795;-79
2023/08/31 06:07:35;;;;;;;;;;;;;;;19.07;68.03;100405.34;10377071;28;97448;-80
2023/08/31 06:12:38;;;;;;;5.13;1.70;;;;;;;19.01;67.97;100404.91;10377031;28;96721;-80
2023/08/31 06:17:43;;;;;;;2.80;1.60;;;;;;;19.04;68.10;100408.22;10379634;28;96857;-79
2023/08/31 06:22:46;;;;;;;2.05;1.38;;;;;;;19.04;68.16;100410.88;10418046;27;96664;-80
2023/08/31 06:27:50;;;;;;;4.45;1.60;;;;;;;19.04;68.57;100413.56;10417734;27;96942;-80
2023/08/31 06:32:55;;;;;;;2.13;1.35;;;;;;;19.76;66.29;100414.50;10418046;27;96818;-79
2023/08/31 06:37:58;;;;;;;2.88;1.38;;;;;;;20.50;64.67;100416.84;10416388;27;97052;-78
2023/08/31 06:43:02;;;;;;;2.15;1.25;;;;;;;20.93;62.37;100424.03;10417400;27;97346;-79
2023/08/31 06:48:08;;;;;;;2.20;1.23;;;;;;;21.52;61.00;100426.44;10417141;27;97298;-80
2023/08/31 06:53:12;;;;;;;2.00;1.15;;;;;;;22.11;59.81;100441.09;10417068;27;97388;-80
2023/08/31 06:58:16;;;;;;;1.40;1.02;;;;;;;22.41;58.30;100431.31;10416720;27;96680;-80
2023/08/31 07:03:21;;;;;;;2.80;1.20;;;;;;;22.83;56.48;100428.63;10416765;27;96810;-80
2023/08/31 07:08:27;;;;;;;1.42;1.13;;;;;;;23.33;55.40;100438.44;10414721;27;96765;-79
2023/08/31 07:13:31;;;;;;;2.73;1.20;;;;;;;23.66;53.64;100440.81;10416482;27;96552;-80
2023/08/31 07:18:37;;;;;;;2.53;0.90;;;;;;;23.75;52.06;100448.03;10392138;27;96945;-80
2023/08/31 07:23:40;;;;;;;4.15;1.27;;;;;;;24.31;51.04;100448.19;10374230;28;97586;-80
2023/08/31 07:28:44;;;;;;;1.87;1.00;;;;;;;24.66;50.17;100443.06;10374583;28;96852;-80
2023/08/31 07:33:49;;;;;;;2.85;1.00;;;;;;;25.12;49.01;100444.94;10374087;28;97272;-80
2023/08/31 07:38:52;;;;;;;1.52;1.08;;;;;;;25.44;48.23;100453.41;10373733;28;97676;-80
2023/08/31 07:43:56;;;;;;;0.75;0.75;;;;;;;25.26;46.78;100449.81;10374949;28;96822;-79
2023/08/31 07:49:08;;;;;;;1.88;0.90;;;;;;;25.95;46.47;100448.28;10373083;28;96909;-81
2023/08/31 07:54:12;;;;;;;1.02;0.82;;;;;;;26.47;45.36;100451.97;10372938;28;96699;-81
2023/08/31 07:59:15;;;;;;;1.80;1.10;;;;;;;26.97;44.41;100455.69;10372385;28;97199;-81
2023/08/31 08:04:20;;;;;;;1.52;0.85;;;;;;;26.96;43.52;100451.28;10372894;28;96660;-81
2023/08/31 08:09:23;;;;;;;2.80;1.00;;;;;;;27.56;42.80;100457.53;10372867;28;96696;-81
2023/08/31 08:14:26;;;;;;;;;;;;;;;28.39;40.91;100457.38;10373071;28;96706;-80
2023/08/31 08:19:31;;;;;;;1.30;0.88;;;;;;;29.09;40.49;100450.34;10372715;28;96959;-81
2023/08/31 08:24:34;;;;;;;2.00;1.10;;;;;;;29.06;40.06;100446.13;10372269;28;96853;-81
2023/08/31 08:29:38;;;;;;;1.50;1.00;;;;;;;30.62;38.25;100453.00;10372339;28;97120;-81
2023/08/31 08:34:42;;;;;;;1.08;0.75;;;;;;;30.93;36.79;100453.75;10373312;28;96694;-81
2023/08/31 08:39:49;;;;;;;1.70;0.90;;;;;;;31.22;36.00;100451.03;10370817;28;96746;-81
2023/08/31 08:44:57;;;;;;;1.50;0.98;;;;;;;31.26;35.44;100456.97;10371982;28;97817;-82
2023/08/31 08:50:03;;;;;;;1.50;1.00;;;;;;;31.98;34.53;100450.56;10370522;28;96829;-81
2023/08/31 08:55:07;;;;;;;0.75;0.40;;;;;;;32.18;34.42;100443.47;10330194;28;96783;-82
2023/08/31 09:00:11;;;;;;;1.52;1.05;;;;;;;31.87;33.58;100444.78;10329924;28;96703;-81
2023/08/31 09:05:16;;;;;;;1.80;0.98;;;;;;;31.70;33.04;100441.41;10330197;28;97456;-80
2023/08/31 09:10:22;;;;;;;1.80;1.20;;;;;;;31.57;32.33;100444.00;10358156;28;97526;-81
2023/08/31 09:15:36;;;;;;;1.73;0.77;;;;;;;30.75;33.22;100447.00;10370976;28;97026;-81
2023/08/31 09:20:48;;;;;;;2.20;1.00;;;;;;;31.27;32.55;100445.91;10370711;28;97034;-81
2023/08/31 09:25:53;;;;;;;1.67;0.77;;;;;;;31.21;32.32;100452.06;10386451;28;96688;-81
2023/08/31 09:31:06;;;;;;;1.60;0.88;;;;;;;30.87;31.69;100446.31;10411898;27;96703;-82
2023/08/31 09:36:11;;;;;;;1.13;0.82;;;;;;;31.16;31.76;100446.38;10412063;27;96613;-81
2023/08/31 09:41:15;;;;;;;1.05;0.70;;;;;;;31.68;31.49;100438.06;10410088;27;96960;-82
2023/08/31 09:46:19;;;;;;;0.75;0.70;;;;;;;31.68;30.51;100440.78;10411360;27;97447;-81
2023/08/31 09:51:27;;;;;;;1.38;0.82;;;;;;;31.65;29.82;100443.03;10412734;27;96790;-81
2023/08/31 09:56:34;;;;;;;1.45;0.80;;;;;;;32.43;29.48;100441.19;10418528;27;96548;-82
2023/08/31 10:01:37;;;;;;;0.93;0.63;;;;;;;32.45;28.98;100447.28;10417500;27;96766;-81
2023/08/31 10:06:42;;;;;;;1.65;0.80;;;;;;;33.24;28.00;100430.44;10418435;27;97918;-81
2023/08/31 10:11:46;;;;;;;1.85;1.10;;;;;;;32.51;28.42;100442.94;10418305;27;96766;-82
2023/08/31 10:16:52;;;;;;;1.02;0.73;;;;;;;33.36;28.13;100438.94;10402840;27;97726;-82
2023/08/31 10:22:00;;;;;;;1.00;0.88;;;;;;;33.64;27.54;100427.94;10376054;28;97084;-82
2023/08/31 10:27:19;;;;;;;1.75;1.08;;;;;;;33.25;27.32;100418.50;10376115;28;96687;-81
2023/08/31 10:32:22;;;;;;;2.25;1.23;;;;;;;34.28;27.07;100416.31;10375484;28;96677;-81
2023/08/31 10:37:28;;;;;;;0.93;0.70;;;;;;;34.45;27.23;100403.97;10375606;28;96898;-82
2023/08/31 10:42:31;;;;;;;1.42;0.88;;;;;;;34.11;26.58;100406.84;10375702;28;96572;-81
2023/08/31 10:47:38;;;;;;;1.25;0.80;;;;;;;34.85;26.40;100390.25;10375449;28;97213;-82
2023/08/31 10:52:47;;;;;;;1.92;0.90;;;;;;;34.67;25.99;100392.78;10376266;28;96712;-81
2023/08/31 10:57:50;;;;;;;1.98;0.90;;;;;;;35.05;26.37;100388.31;10375019;28;96697;-82
2023/08/31 11:02:56;;;;;;;1.60;0.95;;;;;;;35.54;25.18;100383.97;10373748;28;97570;-82
2023/08/31 11:08:01;;;;;;;1.05;0.80;;;;;;;35.62;24.32;100380.97;10375800;28;97682;-82
2023/08/31 11:13:06;;;;;;;1.33;1.02;;;;;;;35.44;25.15;100377.28;10374841;28;96742;-82
2023/08/31 11:18:09;;;;;;;1.38;0.90;;;;;;;35.60;24.30;100374.84;10347742;28;96971;-82
2023/08/31 11:23:15;;;;;;;2.50;1.10;;;;;;;35.34;24.94;100371.41;10334337;28;96725;-81
2023/08/31 11:28:19;;;;;;;1.30;0.82;;;;;;;35.92;23.84;100358.47;10374577;28;97050;-82
2023/08/31 11:33:22;;;;;;;1.58;0.93;;;;;;;34.92;24.96;100353.63;10374167;28;96642;-82
2023/08/31 11:38:27;;;;;;;1.55;1.00;;;;;;;34.85;25.62;100351.97;10373783;28;96695;-82
2023/08/31 11:43:31;;;;;;;0.98;0.80;;;;;;;34.90;25.85;100346.69;10374677;28;96655;-82
2023/08/31 11:48:35;;;;;;;2.03;0.90;;;;;;;35.37;25.15;100344.41;10372969;28;96555;-82
2023/08/31 11:53:41;;;;;;;1.23;0.88;;;;;;;35.48;25.10;100337.44;10373865;28;97983;-82
2023/08/31 11:58:45;;;;;;;2.97;2.15;;;;;;;35.68;25.00;100333.50;10374612;28;96645;-82
2023/08/31 12:04:11;;;;;;;3.83;2.87;;;;;;;35.77;24.61;100333.25;10373229;28;96655;-82
2023/08/31 12:09:16;;;;;;;3.40;2.38;;;;;;;35.95;25.13;100328.72;10373227;28;97730;-82
2023/08/31 12:14:21;;;;;;;2.80;2.38;;;;;;;36.05;24.46;100328.25;10373463;28;97817;-82
2023/08/31 12:19:28;;;;;;;1.92;1.58;;;;;;;35.27;24.42;100322.13;10376854;27;96977;-82
2023/08/31 12:24:38;;;;;;;3.28;2.80;;;;;;;35.49;24.41;100319.97;10372800;28;96820;-81
2023/08/31 12:29:42;;;;;;;3.45;2.05;;;;;;;35.35;25.03;100308.22;10372147;28;96821;-81
2023/08/31 12:34:46;;;;;;;2.53;1.70;;;;;;;35.28;25.29;100301.09;10372684;28;96684;-81
2023/08/31 12:39:51;;;;;;;1.45;1.10;;;;;;;35.31;25.53;100298.75;10371666;28;96801;-79
2023/08/31 12:44:54;;;;;;;1.80;1.30;;;;;;;34.96;25.64;100289.25;10371270;28;97501;-80
2023/08/31 12:49:57;;;;;;;1.73;0.90;;;;;;;35.38;25.82;100285.03;10372989;28;96719;-80
2023/08/31 12:55:04;;;;;;;1.30;0.98;;;;;;;34.46;26.97;100284.53;10371610;28;97512;-80
2023/08/31 13:00:11;;;;;;;1.52;0.98;;;;;;;34.07;27.59;100276.38;10371300;28;96699;-80
2023/08/31 13:05:15;;;;;;;1.20;0.73;;;;;;;33.92;27.80;100275.75;10370901;28;97403;-81
2023/08/31 13:10:19;;;;;;;1.50;0.90;;;;;;;33.60;28.32;100269.19;10371453;28;96791;-81
2023/08/31 13:15:23;;;;;;;1.40;1.00;;;;;;;33.26;28.59;100269.31;10359482;28;96591;-80
2023/08/31 13:20:28;;;;;;;1.15;0.70;;;;;;;33.20;28.61;100272.84;10344094;28;97053;-80
2023/08/31 13:25:33;;;;;;;1.00;0.73;;;;;;;33.23;28.59;100259.66;10371410;28;97365;-80
2023/08/31 13:30:36;;;;;;;1.90;0.80;;;;;;;33.48;28.41;100251.75;10378126;28;97046;-80
2023/08/31 13:35:39;;;;;;;1.17;0.80;;;;;;;33.51;28.07;100243.13;10377669;28;97915;-80
2023/08/31 13:40:44;;;;;;;1.40;0.90;;;;;;;33.30;28.88;100233.22;10378913;28;96690;-79
2023/08/31 13:45:48;;;;;;;1.00;0.90;;;;;;;33.44;28.88;100245.88;10377503;28;96751;-80
2023/08/31 13:50:51;;;;;;;1.50;0.88;;;;;;;33.36;28.80;100247.91;10377363;28;96739;-81
2023/08/31 13:55:57;;;;;;;1.70;1.02;;;;;;;33.29;28.72;100245.19;10376081;28;97233;-81
2023/08/31 14:01:03;;;;;;;2.30;1.00;;;;;;;33.10;29.14;100240.53;10377857;27;97744;-79
2023/08/31 14:06:08;;;;;;;3.17;1.08;;;;;;;33.09;29.02;100241.56;10376922;28;96570;-80
2023/08/31 14:11:15;;;;;;;1.17;1.02;;;;;;;33.26;29.74;100237.41;10376776;28;97573;-80
2023/08/31 14:16:19;;;;;;;1.92;1.20;;;;;;;33.29;30.56;100223.38;10376431;28;96793;-81
2023/08/31 14:21:22;;;;;;;1.92;1.30;;;;;;;32.79;31.75;100228.44;10376430;28;96721;-81
2023/08/31 14:26:27;;;;;;;1.90;1.15;;;;;;;32.59;31.40;100227.47;10376065;28;96570;-81
2023/08/31 14:31:30;;;;;;;2.60;1.20;;;;;;;32.76;32.01;100218.75;10377459;28;96823;-81
2023/08/31 14:36:34;;;;;;;2.20;1.27;;;;;;;32.74;31.76;100217.28;10375484;28;96938;-79
2023/08/31 14:41:39;;;;;;;2.08;1.33;;;;;;;32.79;32.14;100226.53;10374601;28;96787;-82
2023/08/31 14:46:42;;;;;;;2.30;1.33;;;;;;;32.51;32.02;100227.66;10374378;28;96806;-81
2023/08/31 14:51:46;;;;;;;1.67;1.30;;;;;;;32.62;31.78;100219.75;10375439;28;97304;-81
2023/08/31 14:56:50;;;;;;;3.22;1.50;;;;;;;32.66;31.94;100231.94;10375203;28;96723;-80
2023/08/31 15:01:54;;;;;;;1.63;1.13;;;;;;;32.36;32.31;100216.88;10375107;28;96612;-82
2023/08/31 15:06:57;;;;;;;2.08;1.30;;;;;;;32.53;31.75;100214.69;10375499;28;96743;-81
2023/08/31 15:12:02;;;;;;;3.22;1.13;;;;;;;32.06;32.60;100229.91;10375223;28;96801;-80
2023/08/31 15:17:05;;;;;;;1.60;1.10;;;;;;;32.37;32.14;100213.97;10373833;28;97442;-81
2023/08/31 15:22:09;;;;;;;1.77;1.00;;;;;;;32.29;32.05;100218.72;10376022;28;96850;-81
2023/08/31 15:27:14;;;;;;;1.38;1.05;;;;;;;32.19;31.75;100234.56;10374154;28;96677;-80
2023/08/31 15:32:18;;;;;;;2.10;1.27;;;;;;;32.26;32.14;100227.28;10374162;28;97181;-81
2023/08/31 15:37:22;;;;;;;2.40;1.20;;;;;;;32.22;31.88;100229.56;10372883;28;98017;-79
2023/08/31 15:42:28;;;;;;;1.42;0.90;;;;;;;32.02;32.23;100230.47;10374479;28;96578;-81
2023/08/31 15:47:31;;;;;;;1.55;1.05;;;;;;;32.17;31.88;100233.94;10373464;28;96730;-81
2023/08/31 15:52:35;;;;;;;1.73;1.00;;;;;;;32.08;31.99;100229.69;10372802;28;97553;-81
2023/08/31 15:57:40;;;;;;;1.38;1.10;;;;;;;31.75;32.86;100220.41;10373877;28;96902;-81
2023/08/31 16:02:43;;;;;;;1.40;0.77;;;;;;;31.72;32.82;100231.69;10373465;28;96580;-79
2023/08/31 16:07:47;;;;;;;2.00;1.00;;;;;;;31.51;33.14;100232.56;10372917;28;97134;-80
2023/08/31 16:12:55;;;;;;;2.15;1.10;;;;;;;31.35;33.72;100232.81;10373972;28;96783;-81
2023/08/31 16:17:58;;;;;;;1.88;1.17;;;;;;;31.08;34.29;100234.38;10372092;28;96826;-81
2023/08/31 16:23:01;;;;;;;1.95;1.10;;;;;;;30.90;34.29;100242.13;10372370;28;97943;-81
2023/08/31 16:28:06;;;;;;;;;;;;;;;30.64;35.36;100249.91;10371859;28;96710;-80
2023/08/31 16:33:09;;;;;;;3.05;1.20;;;;;;;30.40;35.66;100247.50;10373010;28;96832;-80
2023/08/31 16:38:14;;;;;;;2.10;1.38;;;;;;;30.36;35.68;100248.88;10371618;28;97690;-81
2023/08/31 16:43:19;;;;;;;;;;;;;;;30.16;36.69;100250.47;10372337;28;96536;-81
2023/08/31 16:48:22;;;;;;;2.58;1.27;;;;;;;30.17;36.42;100252.16;10372597;28;97691;-80
2023/08/31 16:53:25;;;;;;;2.20;1.20;;;;;;;30.12;36.38;100251.88;10371265;28;96644;-80
2023/08/31 16:58:30;;;;;;;1.95;1.13;;;;;;;30.01;36.52;100253.13;10371290;28;96737;-81
2023/08/31 17:03:34;;;;;;;2.70;1.25;;;;;;;29.94;37.00;100257.63;10371367;28;96816;-79
2023/08/31 17:08:38;;;;;;;2.00;0.95;;;;;;;29.93;36.91;100246.94;10371624;28;97702;-81
2023/08/31 17:13:42;;;;;;;1.85;1.02;;;;;;;29.81;37.12;100251.13;10356682;28;96743;-81
2023/08/31 17:18:46;;;;;;;1.52;1.00;;;;;;;29.74;37.23;100251.03;10327400;28;97022;-80
2023/08/31 17:23:49;;;;;;;1.48;1.05;;;;;;;29.61;37.03;100256.22;10362005;28;97351;-79
2023/08/31 17:28:54;;;;;;;1.92;1.10;;;;;;;29.68;36.99;100259.03;10370593;28;96689;-80
2023/08/31 17:33:57;;;;;;;2.00;0.80;;;;;;;29.44;36.84;100262.75;10371056;28;96650;-81
2023/08/31 17:39:01;;;;;;;1.35;0.77;;;;;;;29.45;37.08;100250.06;10370695;28;96787;-81
2023/08/31 17:44:06;;;;;;;0.95;0.75;;;;;;;29.41;37.14;100259.56;10370744;28;96726;-80
2023/08/31 17:49:13;;;;;;;1.95;0.80;;;;;;;29.31;37.18;100262.53;10402855;22;97057;-81
2023/08/31 17:54:20;;;;;;;1.88;0.60;;;;;;;29.22;37.46;100260.91;10373030;28;97395;-81
2023/08/31 17:59:25;;;;;;;0.98;0.60;;;;;;;29.15;37.86;100260.78;10411530;28;97967;-80
2023/08/31 18:04:28;;;;;;;1.63;0.80;;;;;;;28.99;38.55;100271.72;10411251;28;96841;-80
2023/08/31 18:09:36;;;;;;;1.48;1.00;;;;;;;28.78;39.67;100266.00;10410209;28;96750;-80
2023/08/31 18:14:42;;;;;;;1.42;0.90;;;;;;;28.48;40.93;100272.22;10384747;28;97920;-81
2023/08/31 18:19:47;;;;;;;1.08;0.80;;;;;;;28.33;41.60;100278.53;10376078;28;97273;-80
2023/08/31 18:24:51;;;;;;;;;;;;;;;28.10;43.18;100278.38;10376926;28;96722;-80
2023/08/31 18:29:56;;;;;;;2.03;0.90;;;;;;;27.87;42.89;100272.84;10376958;28;97764;-81
2023/08/31 18:34:59;;;;;;;2.72;0.80;;;;;;;27.63;43.93;100275.50;10375894;28;97312;-81
2023/08/31 18:40:04;;;;;;;1.42;0.60;;;;;;;27.49;44.40;100291.56;10375912;28;97046;-81
2023/08/31 18:45:10;;;;;;;1.38;0.70;;;;;;;27.38;44.32;100294.59;10376930;28;97504;-79
2023/08/31 18:50:19;;;;;;;0.88;0.70;;;;;;;27.27;44.14;100297.63;10374753;28;96795;-80
2023/08/31 18:55:23;;;;;;;1.45;0.65;;;;;;;27.24;44.66;100312.31;10375546;28;97741;-81
2023/08/31 19:00:28;;;;;;;0.73;0.40;;;;;;;27.16;45.12;100311.44;10373870;28;96762;-80
2023/08/31 19:05:31;;;;;;;0.88;0.50;;;;;;;27.01;45.78;100314.72;10403823;28;96970;-79
2023/08/31 19:10:35;;;;;;;0.68;0.43;;;;;;;26.93;46.08;100317.41;10416311;28;97532;-79
2023/08/31 19:15:40;;;;;;;1.08;0.60;;;;;;;26.63;46.58;100331.44;10396883;28;97578;-79
2023/08/31 19:20:43;;;;;;;1.17;0.55;;;;;;;26.51;46.99;100338.13;10375730;28;97811;-79
2023/08/31 19:25:47;;;;;;;0.85;0.55;;;;;;;26.47;46.78;100338.63;10373478;28;96717;-81
2023/08/31 19:30:52;;;;;;;0.95;0.50;;;;;;;26.45;46.81;100340.63;10373692;28;96888;-79
2023/08/31 19:35:56;;;;;;;1.05;0.40;;;;;;;26.34;46.46;100346.25;10374679;28;96732;-80
2023/08/31 19:41:01;;;;;;;1.38;0.57;;;;;;;26.23;47.13;100360.00;10415427;28;97142;-80
2023/08/31 19:46:11;;;;;;;1.08;0.50;;;;;;;25.98;47.72;100358.97;10415067;28;96861;-81
2023/08/31 19:51:15;;;;;;;2.20;0.77;;;;;;;25.68;48.31;100373.66;10372869;28;97250;-80
2023/08/31 19:56:19;;;;;;;1.15;0.57;;;;;;;25.74;47.81;100369.53;10373619;28;96855;-79
2023/08/31 20:01:23;;;;;;;1.45;0.40;;;;;;;25.76;47.76;100381.84;10373280;28;96878;-79
2023/08/31 20:06:27;;;;;;;0.50;0.32;;;;;;;25.78;47.60;100389.78;10372954;28;96700;-79
2023/08/31 20:11:30;;;;;;;1.77;0.73;;;;;;;25.58;48.09;100390.91;10373563;28;97129;-80
2023/08/31 20:16:35;;;;;;;0.60;0.47;;;;;;;25.58;48.05;100401.69;10372408;28;96877;-79
2023/08/31 20:21:38;;;;;;;1.90;0.50;;;;;;;25.35;48.66;100405.78;10372502;28;96696;-80
2023/08/31 20:26:42;;;;;;;;;;;;;;;25.36;49.28;100416.44;10373701;28;96660;-79
2023/08/31 20:31:48;;;;;;;0.93;0.50;;;;;;;25.24;48.95;100419.50;10373074;28;96915;-79
2023/08/31 20:36:55;;;;;;;2.33;0.38;;;;;;;25.13;49.68;100425.06;10372000;28;96888;-80
2023/08/31 20:41:59;;;;;;;1.27;0.65;;;;;;;25.01;49.93;100432.50;10370855;28;96676;-80
2023/08/31 20:47:04;;;;;;;0.90;0.50;;;;;;;25.19;49.60;100429.88;10371913;28;96840;-80
2023/08/31 20:52:09;;;;;;;0.88;0.40;;;;;;;24.98;50.45;100448.06;10371813;28;97229;-79
2023/08/31 20:57:12;;;;;;;1.10;0.50;;;;;;;24.96;50.40;100444.66;10371530;28;97640;-79
2023/08/31 21:02:18;;;;;;;0.70;0.50;;;;;;;24.87;50.68;100442.84;10381360;28;96714;-79
2023/08/31 21:07:21;;;;;;;1.42;0.75;;;;;;;24.70;51.25;100445.31;10412264;28;96885;-79
2023/08/31 21:12:25;;;;;;;1.27;0.60;;;;;;;24.62;51.63;100442.50;10412791;28;97879;-79
2023/08/31 21:17:29;;;;;;;1.23;0.85;;;;;;;24.51;51.98;100440.00;10413131;28;96799;-79
2023/08/31 21:22:33;;;;;;;1.00;0.60;;;;;;;24.53;52.17;100439.84;10368103;28;96621;-79
2023/08/31 21:27:36;;;;;;;1.37;0.70;;;;;;;24.39;52.60;100449.19;10370644;28;97760;-79
2023/08/31 21:32:41;;;;;;;0.67;0.60;;;;;;;24.28;52.67;100446.66;10369846;28;97428;-79
2023/08/31 21:37:44;;;;;;;1.58;0.52;;;;;;;24.18;53.04;100447.63;10370904;28;98034;-79
2023/08/31 21:42:48;;;;;;;2.40;0.80;;;;;;;24.08;53.39;100450.31;10370271;28;96880;-79
2023/08/31 21:47:52;;;;;;;1.60;0.70;;;;;;;24.09;53.49;100451.16;10371414;28;96713;-79
2023/08/31 21:52:56;;;;;;;0.77;0.50;;;;;;;;;;10384590;28;97614;-80
2023/08/31 21:57:59;;;;;;;0.80;0.60;;;;;;;23.83;54.05;100458.06;10418916;28;97740;-79
2023/08/31 22:03:04;;;;;;;4.23;0.80;;;;;;;23.76;54.38;100460.47;10418559;28;97033;-79
2023/08/31 22:08:11;;;;;;;1.30;0.70;;;;;;;23.85;53.86;100451.59;10419095;28;96791;-79
2023/08/31 22:13:15;;;;;;;1.42;0.93;;;;;;;23.64;54.61;100458.91;10417677;28;97498;-80
2023/08/31 22:18:20;;;;;;;1.33;0.70;;;;;;;23.57;54.91;100463.13;10410699;28;96948;-79
2023/08/31 22:23:23;;;;;;;3.67;1.00;;;;;;;23.52;54.98;100460.84;10376379;28;96764;-79
2023/08/31 22:28:27;;;;;;;1.13;0.73;;;;;;;23.60;54.53;100457.47;10395733;28;97079;-80
2023/08/31 22:33:31;;;;;;;1.50;0.77;;;;;;;23.43;55.03;100461.66;10418121;28;97104;-79
2023/08/31 22:38:35;;;;;;;2.17;0.73;;;;;;;23.35;55.39;100455.25;10417223;28;97555;-79
2023/08/31 22:43:41;;;;;;;3.30;0.77;;;;;;;23.17;55.68;100455.06;10416584;28;96701;-80
2023/08/31 22:48:47;;;;;;;1.17;0.57;;;;;;;23.18;55.76;100455.91;10411455;28;96931;-79
2023/08/31 22:53:50;;;;;;;2.00;0.70;;;;;;;23.11;55.99;100458.25;10376391;28;97519;-79
2023/08/31 22:58:53;;;;;;;1.05;0.63;;;;;;;22.97;56.33;100458.66;10374751;28;96674;-79
2023/08/31 23:03:58;;;;;;;2.38;0.80;;;;;;;22.95;56.06;100462.44;10375318;28;96697;-79
2023/08/31 23:09:03;;;;;;;1.38;0.90;;;;;;;22.92;56.38;100468.09;10375478;28;96978;-80
2023/08/31 23:14:06;;;;;;;;;;;;;;;22.70;58.10;100469.03;10373742;28;96865;-79
2023/08/31 23:19:11;;;;;;;2.13;1.15;;;;;;;22.46;57.89;100472.00;10375327;28;96874;-79
2023/08/31 23:24:15;;;;;;;1.92;0.88;;;;;;;22.30;58.72;100466.22;10374726;28;97075;-80